Time;durP1;ratioP1;P1;durP2;ratioP2;P2;SDS_P1;SDS_P2;PMS_P1;PMS_P2;Temp;Humidity;BMP_temperature;BMP_pressure;BME280_temperature;BME280_humidity;BME280_pressure;Samples;Min_cycle;Max_cycle;Signal;HPM_P1;HPM_P2
2022/03/01 00:01:46;;;;;;;19.17;12.30;;;4.60;99.90;;;;;;5046493;28;20127;-63
2022/03/01 00:04:11;;;;;;;21.48;12.65;;;4.60;99.90;;;;;;5049645;28;20102;-63
2022/03/01 00:06:37;;;;;;;16.63;13.02;;;4.50;99.90;;;;;;5048708;28;20056;-63
2022/03/01 00:09:03;;;;;;;22.95;13.68;;;4.50;99.90;;;;;;5045356;28;20052;-63
2022/03/01 00:11:29;;;;;;;20.00;13.20;;;4.60;99.90;;;;;;5047154;28;20045;-63
2022/03/01 00:13:54;;;;;;;18.58;13.63;;;4.70;99.90;;;;;;5047379;28;20489;-63
2022/03/01 00:16:20;;;;;;;19.33;13.77;;;4.70;99.90;;;;;;5045387;28;20037;-63
2022/03/01 00:18:46;;;;;;;21.45;14.48;;;4.50;99.90;;;;;;5047519;28;20057;-63
2022/03/01 00:21:12;;;;;;;19.02;12.30;;;4.60;99.90;;;;;;5047361;28;20130;-63
2022/03/01 00:23:38;;;;;;;19.83;14.98;;;4.60;99.90;;;;;;5046002;28;20037;-63
2022/03/01 00:26:04;;;;;;;23.33;15.05;;;4.70;99.90;;;;;;5046883;28;20063;-63
2022/03/01 00:28:29;;;;;;;19.40;13.98;;;4.60;99.90;;;;;;5047038;28;20488;-63
2022/03/01 00:30:55;;;;;;;21.27;14.55;;;4.70;99.90;;;;;;5046487;28;20481;-63
2022/03/01 00:33:21;;;;;;;18.45;12.90;;;4.70;99.90;;;;;;5047144;28;20116;-63
2022/03/01 00:35:47;;;;;;;20.33;13.85;;;4.70;99.90;;;;;;5046788;28;20128;-63
2022/03/01 00:38:12;;;;;;;19.27;13.13;;;4.70;99.90;;;;;;5044660;28;20077;-63
2022/03/01 00:40:38;;;;;;;20.13;13.63;;;4.70;99.90;;;;;;5047698;28;20045;-63
2022/03/01 00:43:04;;;;;;;21.55;14.68;;;4.60;99.90;;;;;;5045854;28;20405;-63
2022/03/01 00:45:29;;;;;;;21.88;12.48;;;4.80;99.90;;;;;;5047557;28;20049;-63
2022/03/01 00:47:55;;;;;;;21.90;14.30;;;4.60;99.90;;;;;;5047513;28;20499;-63
2022/03/01 00:50:20;;;;;;;20.30;13.02;;;4.60;99.90;;;;;;5045575;28;20033;-63
2022/03/01 00:52:46;;;;;;;21.38;14.02;;;4.70;99.90;;;;;;5047923;28;20455;-63
2022/03/01 00:55:11;;;;;;;19.58;13.95;;;4.70;99.90;;;;;;5046071;28;20041;-63
2022/03/01 00:57:37;;;;;;;22.83;14.02;;;4.70;99.90;;;;;;5046965;28;20037;-63
2022/03/01 01:00:05;;;;;;;19.45;12.43;;;4.70;99.90;;;;;;5045647;28;20057;-63
2022/03/01 01:02:31;;;;;;;19.20;12.45;;;4.60;99.90;;;;;;5047362;28;20048;-63
2022/03/01 01:04:56;;;;;;;20.13;13.93;;;4.80;99.90;;;;;;5045330;28;20053;-63
2022/03/01 01:07:22;;;;;;;24.50;13.52;;;4.70;99.90;;;;;;5047228;28;20041;-63
2022/03/01 01:09:48;;;;;;;22.02;13.30;;;4.60;99.90;;;;;;5045197;28;20054;-63
2022/03/01 01:12:14;;;;;;;19.45;14.43;;;4.50;99.90;;;;;;5046756;28;20052;-63
2022/03/01 01:14:39;;;;;;;23.75;12.77;;;4.50;99.90;;;;;;5046191;28;20045;-63
2022/03/01 01:17:05;;;;;;;23.65;14.13;;;4.50;99.90;;;;;;5047137;28;20048;-63
2022/03/01 01:19:30;;;;;;;20.30;13.57;;;4.60;99.90;;;;;;5046617;28;20045;-63
2022/03/01 01:24:40;;;;;;;25.17;14.90;;;4.50;99.90;;;;;;5046562;28;20116;-63
2022/03/01 01:27:06;;;;;;;22.90;13.70;;;4.50;99.90;;;;;;5044997;28;20048;-63
2022/03/01 01:29:31;;;;;;;23.63;14.75;;;4.50;99.90;;;;;;5050470;28;20469;-63
2022/03/01 01:31:57;;;;;;;23.13;13.35;;;4.40;99.90;;;;;;5049167;28;20056;-63
2022/03/01 01:34:22;;;;;;;21.80;14.35;;;4.40;99.90;;;;;;5049736;28;20049;-63
2022/03/01 01:36:48;;;;;;;25.08;16.80;;;4.50;99.90;;;;;;5050796;28;20125;-63
2022/03/01 01:39:13;;;;;;;19.35;13.70;;;4.40;99.90;;;;;;5049301;28;20041;-63
2022/03/01 01:41:39;;;;;;;23.42;13.52;;;4.50;99.90;;;;;;5049698;28;20041;-63
2022/03/01 01:44:07;;;;;;;23.90;14.65;;;4.50;99.90;;;;;;5049932;28;20095;-63
2022/03/01 01:46:34;;;;;;;18.63;13.50;;;4.50;99.90;;;;;;5050584;28;20037;-63
2022/03/01 01:48:59;;;;;;;20.55;13.60;;;4.50;99.90;;;;;;5048997;28;20132;-63
2022/03/01 01:51:25;;;;;;;20.08;13.65;;;4.60;99.90;;;;;;5049943;28;20794;-63
2022/03/01 01:53:52;;;;;;;22.83;13.32;;;4.60;99.90;;;;;;5048408;28;20570;-63
2022/03/01 01:56:18;;;;;;;20.83;14.50;;;4.60;99.90;;;;;;5040645;28;20036;-63
2022/03/01 01:58:44;;;;;;;19.95;14.10;;;4.60;99.90;;;;;;5047528;28;20061;-63
2022/03/01 02:01:10;;;;;;;18.45;13.57;;;4.60;99.90;;;;;;5047183;28;20048;-63
2022/03/01 02:03:35;;;;;;;21.90;14.23;;;4.50;99.90;;;;;;5054242;28;20508;-63
2022/03/01 02:06:01;;;;;;;21.77;14.65;;;4.60;99.90;;;;;;5049472;28;20036;-63
2022/03/01 02:08:31;;;;;;;27.35;14.50;;;4.50;99.90;;;;;;5048272;28;20053;-63
2022/03/01 02:10:58;;;;;;;23.10;14.20;;;4.50;99.90;;;;;;5050322;28;20186;-63
2022/03/01 02:13:23;;;;;;;20.77;14.85;;;4.50;99.90;;;;;;5050141;28;20049;-63
2022/03/01 02:15:49;;;;;;;23.00;14.75;;;4.50;99.90;;;;;;5048298;28;20048;-63
2022/03/01 02:18:16;;;;;;;19.35;14.02;;;4.50;99.90;;;;;;5048075;28;20080;-63
2022/03/01 02:20:42;;;;;;;22.95;14.15;;;4.50;99.90;;;;;;5048750;28;20059;-63
2022/03/01 02:23:08;;;;;;;20.48;14.27;;;4.50;99.90;;;;;;5048141;28;20041;-63
2022/03/01 02:25:33;;;;;;;26.92;15.52;;;4.40;99.90;;;;;;5048761;28;20049;-63
2022/03/01 02:27:59;;;;;;;29.73;15.27;;;4.40;99.90;;;;;;5047761;28;20120;-63
2022/03/01 02:30:25;;;;;;;19.42;13.95;;;4.50;99.90;;;;;;5051320;28;20059;-63
2022/03/01 02:32:51;;;;;;;19.95;14.45;;;4.40;99.90;;;;;;5048783;28;20503;-63
2022/03/01 02:35:17;;;;;;;19.65;14.18;;;4.50;99.90;;;;;;5048768;28;20126;-63
2022/03/01 02:37:43;;;;;;;19.63;13.93;;;4.50;99.90;;;;;;5055802;28;20049;-63
2022/03/01 02:40:09;;;;;;;26.40;14.70;;;4.50;99.90;;;;;;5047392;28;20044;-63
2022/03/01 02:42:37;;;;;;;24.75;13.32;;;4.50;99.90;;;;;;5049061;28;20041;-63
2022/03/01 02:45:04;;;;;;;21.35;14.60;;;4.50;99.90;;;;;;5050006;28;20041;-63
2022/03/01 02:47:30;;;;;;;29.83;15.55;;;4.50;99.90;;;;;;5049712;28;20049;-63
2022/03/01 02:49:55;;;;;;;19.85;13.82;;;4.40;99.90;;;;;;5048767;28;20067;-63
2022/03/01 02:52:21;;;;;;;26.52;16.83;;;4.50;99.90;;;;;;5050166;28;20045;-63
2022/03/01 02:54:47;;;;;;;23.13;14.38;;;4.40;99.90;;;;;;5048248;28;20045;-63
2022/03/01 02:57:12;;;;;;;21.52;15.45;;;4.40;99.90;;;;;;5049368;28;20049;-63
2022/03/01 02:59:38;;;;;;;22.60;15.18;;;4.40;99.90;;;;;;5047443;28;20393;-63
2022/03/01 03:02:04;;;;;;;23.10;15.63;;;4.30;99.90;;;;;;5048917;28;20088;-63
2022/03/01 03:04:30;;;;;;;21.02;14.52;;;4.30;99.90;;;;;;5047643;28;20032;-63
2022/03/01 03:06:56;;;;;;;22.70;14.95;;;4.30;99.90;;;;;;5050270;28;20507;-63
2022/03/01 03:09:23;;;;;;;21.80;15.15;;;4.30;99.90;;;;;;5048393;28;20132;-63
2022/03/01 03:11:49;;;;;;;23.95;15.65;;;4.20;99.90;;;;;;5047980;28;20120;-63
2022/03/01 03:14:15;;;;;;;26.50;15.05;;;4.20;99.90;;;;;;5046642;28;20140;-63
2022/03/01 03:16:41;;;;;;;20.52;14.93;;;4.10;99.90;;;;;;5044893;28;20052;-63
2022/03/01 03:19:07;;;;;;;22.42;14.75;;;4.20;99.90;;;;;;5040976;28;20388;-63
2022/03/01 03:21:33;;;;;;;24.02;14.95;;;4.20;99.90;;;;;;5048728;28;20053;-63
2022/03/01 03:23:59;;;;;;;21.80;14.68;;;4.20;99.90;;;;;;5048953;28;20052;-63
2022/03/01 03:26:24;;;;;;;21.58;15.07;;;4.30;99.90;;;;;;5048083;28;20048;-63
2022/03/01 03:28:51;;;;;;;22.50;14.52;;;4.20;99.90;;;;;;5047526;28;20053;-63
2022/03/01 03:31:17;;;;;;;24.17;15.10;;;4.20;99.90;;;;;;5048061;28;20171;-63
2022/03/01 03:33:43;;;;;;;20.55;14.88;;;4.30;99.90;;;;;;5049052;28;20127;-63
2022/03/01 03:36:08;;;;;;;20.85;14.50;;;4.30;99.90;;;;;;5051249;28;20045;-63
2022/03/01 03:38:34;;;;;;;24.10;15.00;;;4.40;99.90;;;;;;5047989;28;20045;-63
2022/03/01 03:41:00;;;;;;;21.08;15.32;;;4.30;99.90;;;;;;5049114;28;20084;-63
2022/03/01 03:43:25;;;;;;;21.65;14.63;;;4.30;99.90;;;;;;5046808;28;20040;-63
2022/03/01 03:45:51;;;;;;;22.92;14.57;;;4.30;99.90;;;;;;5047172;28;20540;-62
2022/03/01 03:48:16;;;;;;;23.30;13.48;;;4.40;99.90;;;;;;5048034;28;20041;-63
2022/03/01 03:50:42;;;;;;;21.10;14.48;;;4.30;99.90;;;;;;5048580;28;20473;-63
2022/03/01 03:53:08;;;;;;;22.75;15.70;;;4.30;99.90;;;;;;5047168;28;20179;-63
2022/03/01 03:55:34;;;;;;;21.58;13.40;;;4.40;99.90;;;;;;5045733;28;20265;-63
2022/03/01 03:57:59;;;;;;;20.27;14.65;;;4.30;99.90;;;;;;5048549;28;20049;-62
2022/03/01 04:00:25;;;;;;;21.58;13.80;;;4.40;99.90;;;;;;5046874;28;20060;-62
2022/03/01 04:02:51;;;;;;;25.02;15.80;;;4.30;99.90;;;;;;5047630;28;20048;-63
2022/03/01 04:05:17;;;;;;;24.00;15.32;;;4.30;99.90;;;;;;5047935;28;20443;-63
2022/03/01 04:07:44;;;;;;;18.70;13.05;;;4.40;99.90;;;;;;5031322;28;20120;-63
2022/03/01 04:10:11;;;;;;;22.98;15.00;;;4.40;99.90;;;;;;5045240;28;20044;-63
2022/03/01 04:12:38;;;;;;;21.58;14.18;;;4.40;99.90;;;;;;5047155;28;20048;-62
2022/03/01 04:15:05;;;;;;;20.80;13.65;;;4.40;99.90;;;;;;5047234;28;20134;-62
2022/03/01 04:17:31;;;;;;;20.95;14.88;;;4.50;99.90;;;;;;5046837;28;20435;-63
2022/03/01 04:19:57;;;;;;;20.15;14.50;;;4.40;99.90;;;;;;5047955;28;20048;-62
2022/03/01 04:22:22;;;;;;;21.00;14.93;;;4.40;99.90;;;;;;5046748;28;20083;-63
2022/03/01 04:24:48;;;;;;;20.92;14.75;;;4.50;99.90;;;;;;5046680;28;20174;-63
2022/03/01 04:27:14;;;;;;;20.48;15.73;;;4.50;99.90;;;;;;5047518;28;20504;-63
2022/03/01 04:29:39;;;;;;;22.50;14.60;;;4.50;99.90;;;;;;5047036;28;20041;-63
2022/03/01 04:32:05;;;;;;;21.77;13.57;;;4.40;99.90;;;;;;5046343;28;20041;-63
2022/03/01 04:34:31;;;;;;;21.65;14.75;;;4.50;99.90;;;;;;5047078;28;20041;-62
2022/03/01 04:36:56;;;;;;;25.27;14.55;;;4.40;99.90;;;;;;5051298;28;20049;-63
2022/03/01 04:39:22;;;;;;;21.40;14.63;;;4.40;99.90;;;;;;5047201;28;20049;-63
2022/03/01 04:41:48;;;;;;;21.50;13.50;;;4.40;99.90;;;;;;5047148;28;20049;-63
2022/03/01 04:44:14;;;;;;;19.40;14.07;;;4.40;99.90;;;;;;5047400;28;20489;-62
2022/03/01 04:46:41;;;;;;;19.75;14.75;;;4.40;99.90;;;;;;5047250;28;20389;-63
2022/03/01 04:49:07;;;;;;;23.52;14.88;;;4.40;99.90;;;;;;5046368;28;20053;-62
2022/03/01 04:51:33;;;;;;;20.30;12.93;;;4.40;99.90;;;;;;5048185;28;20037;-63
2022/03/01 04:53:59;;;;;;;21.42;15.35;;;4.40;99.90;;;;;;5046560;28;20041;-62
2022/03/01 04:56:25;;;;;;;21.20;15.07;;;4.50;99.90;;;;;;5047036;28;20052;-62
2022/03/01 04:58:51;;;;;;;19.02;14.05;;;4.50;99.90;;;;;;5047079;28;20057;-63
2022/03/01 05:01:17;;;;;;;21.17;13.95;;;4.60;99.90;;;;;;5046491;28;20068;-63
2022/03/01 05:03:43;;;;;;;19.73;14.55;;;4.60;99.90;;;;;;5044407;28;20088;-62
2022/03/01 05:06:08;;;;;;;22.50;14.57;;;4.60;99.90;;;;;;5048992;28;20052;-63
2022/03/01 05:08:34;;;;;;;22.45;14.23;;;4.50;99.90;;;;;;5051686;28;20174;-62
2022/03/01 05:11:02;;;;;;;23.33;14.88;;;4.50;99.90;;;;;;5051247;28;20093;-63
2022/03/01 05:13:28;;;;;;;21.98;15.15;;;4.60;99.90;;;;;;5050765;28;20552;-63
2022/03/01 05:15:53;;;;;;;22.25;15.65;;;4.50;99.90;;;;;;5048836;28;20124;-63
2022/03/01 05:18:19;;;;;;;16.90;12.85;;;4.50;99.90;;;;;;5049319;28;20059;-63
2022/03/01 05:20:45;;;;;;;24.38;15.38;;;4.60;99.90;;;;;;5051043;28;20048;-62
2022/03/01 05:23:10;;;;;;;22.70;14.15;;;4.50;99.90;;;;;;5049536;28;20404;-62
2022/03/01 05:25:36;;;;;;;19.80;14.27;;;4.50;99.90;;;;;;5050217;28;20075;-62
2022/03/01 05:28:02;;;;;;;19.15;14.52;;;4.50;99.90;;;;;;5050420;28;20057;-63
2022/03/01 05:30:28;;;;;;;24.35;14.82;;;4.60;99.90;;;;;;5050450;28;20040;-63
2022/03/01 05:32:54;;;;;;;23.23;14.77;;;4.60;99.90;;;;;;5049788;28;20130;-63
2022/03/01 05:35:25;;;;;;;22.45;15.45;;;4.60;99.90;;;;;;5050006;28;20128;-63
2022/03/01 05:37:53;;;;;;;21.83;14.85;;;4.50;99.90;;;;;;5050073;28;21497;-62
2022/03/01 05:40:21;;;;;;;21.33;14.52;;;4.50;99.90;;;;;;5049999;28;20170;-62
2022/03/01 05:42:47;;;;;;;22.80;14.38;;;4.60;99.90;;;;;;5051043;28;20049;-63
2022/03/01 05:45:13;;;;;;;23.08;16.45;;;4.60;99.90;;;;;;5048938;28;20041;-62
2022/03/01 05:47:40;;;;;;;24.80;15.48;;;4.60;99.90;;;;;;5050463;28;20037;-62
2022/03/01 05:50:06;;;;;;;18.88;13.05;;;4.60;99.90;;;;;;5050448;28;20044;-63
2022/03/01 05:52:35;;;;;;;22.58;14.75;;;4.60;99.90;;;;;;5049383;28;20037;-63
2022/03/01 05:55:00;;;;;;;22.20;14.75;;;4.60;99.90;;;;;;5045769;28;20504;-62
2022/03/01 05:57:28;;;;;;;22.35;15.65;;;4.70;99.90;;;;;;5044001;28;20056;-62
2022/03/01 05:59:55;;;;;;;19.95;13.93;;;4.60;99.90;;;;;;5048796;28;20045;-63
2022/03/01 06:02:21;;;;;;;19.83;13.88;;;4.70;99.90;;;;;;5049494;28;20515;-62
2022/03/01 06:04:46;;;;;;;24.50;15.30;;;4.80;99.90;;;;;;5051107;28;20072;-63
2022/03/01 06:07:12;;;;;;;19.92;14.60;;;4.80;99.90;;;;;;5049005;28;20534;-63
2022/03/01 06:09:37;;;;;;;23.27;16.35;;;4.70;99.90;;;;;;5050484;28;20396;-62
2022/03/01 06:12:03;;;;;;;23.55;14.57;;;4.80;99.90;;;;;;5048944;28;20053;-62
2022/03/01 06:14:29;;;;;;;18.90;14.20;;;4.70;99.90;;;;;;5047356;28;20040;-63
2022/03/01 06:16:54;;;;;;;20.35;14.35;;;4.70;99.90;;;;;;5049956;28;20652;-62
2022/03/01 06:19:20;;;;;;;25.73;13.57;;;4.70;99.90;;;;;;5047582;28;20044;-62
2022/03/01 06:21:45;;;;;;;19.92;14.35;;;4.80;99.90;;;;;;5049134;28;20048;-62
2022/03/01 06:24:11;;;;;;;22.48;14.52;;;4.80;99.90;;;;;;5049525;28;20071;-62
2022/03/01 06:26:37;;;;;;;23.13;14.32;;;4.90;99.90;;;;;;5049243;28;20443;-63
2022/03/01 06:29:04;;;;;;;23.42;14.23;;;4.80;99.90;;;;;;5047748;28;20083;-63
2022/03/01 06:31:29;;;;;;;23.88;15.57;;;4.80;99.90;;;;;;5049589;28;20041;-62
2022/03/01 06:33:56;;;;;;;23.40;14.95;;;4.90;99.90;;;;;;5050265;28;20453;-63
2022/03/01 06:36:22;;;;;;;25.92;13.65;;;4.90;99.90;;;;;;5047924;28;20041;-63
2022/03/01 06:38:48;;;;;;;19.65;12.25;;;4.90;99.90;;;;;;5048985;28;20048;-63
2022/03/01 06:41:13;;;;;;;21.55;14.55;;;4.90;99.90;;;;;;5047788;28;20033;-62
2022/03/01 06:43:39;;;;;;;24.23;14.48;;;4.90;99.90;;;;;;5049529;28;20047;-62
2022/03/01 06:46:04;;;;;;;23.95;14.48;;;4.80;99.90;;;;;;5040235;28;20044;-62
2022/03/01 06:48:30;;;;;;;25.23;14.80;;;5.00;99.90;;;;;;5048656;28;20119;-62
2022/03/01 06:50:55;;;;;;;23.10;14.50;;;5.00;99.90;;;;;;5048775;28;20770;-62
2022/03/01 06:53:21;;;;;;;21.90;15.25;;;4.90;99.90;;;;;;5047380;28;20394;-62
2022/03/01 06:55:47;;;;;;;20.50;14.32;;;4.90;99.90;;;;;;5048708;28;20041;-63
2022/03/01 06:58:12;;;;;;;21.80;13.10;;;5.00;99.90;;;;;;5048368;28;20095;-62
2022/03/01 07:00:38;;;;;;;21.25;15.45;;;5.00;99.90;;;;;;5048885;28;20699;-62
2022/03/01 07:03:04;;;;;;;24.73;15.25;;;5.00;99.90;;;;;;5047697;28;20469;-62
2022/03/01 07:05:30;;;;;;;21.38;13.23;;;5.00;99.90;;;;;;5049753;28;20042;-62
2022/03/01 07:07:55;;;;;;;22.30;15.00;;;5.00;99.90;;;;;;5048810;28;20044;-62
2022/03/01 07:10:21;;;;;;;19.92;13.20;;;5.00;99.90;;;;;;5047959;28;20053;-62
2022/03/01 07:12:48;;;;;;;21.67;13.50;;;5.00;99.90;;;;;;5048392;28;20087;-62
2022/03/01 07:15:14;;;;;;;22.00;14.80;;;5.20;99.90;;;;;;5048185;28;20064;-63
2022/03/01 07:17:40;;;;;;;22.38;14.07;;;5.10;99.90;;;;;;5048650;28;20052;-63
2022/03/01 07:20:11;;;;;;;20.42;14.30;;;5.10;99.90;;;;;;5048678;28;20048;-63
2022/03/01 07:22:36;;;;;;;21.65;14.73;;;5.10;99.90;;;;;;5048678;28;20088;-63
2022/03/01 07:25:02;;;;;;;20.23;13.88;;;5.00;99.90;;;;;;5047919;28;20179;-63
2022/03/01 07:27:28;;;;;;;22.63;13.20;;;5.10;99.90;;;;;;5048603;28;20128;-63
2022/03/01 07:29:54;;;;;;;19.17;13.23;;;5.10;99.90;;;;;;5047877;28;20045;-63
2022/03/01 07:32:19;;;;;;;21.10;13.23;;;5.20;99.90;;;;;;5039025;28;20048;-63
2022/03/01 07:34:45;;;;;;;19.15;13.57;;;5.10;99.90;;;;;;5053506;28;20049;-63
2022/03/01 07:37:11;;;;;;;18.48;12.77;;;5.20;99.90;;;;;;5050699;28;20510;-63
2022/03/01 07:39:36;;;;;;;23.48;13.40;;;5.20;99.90;;;;;;5048086;28;20566;-63
2022/03/01 07:42:03;;;;;;;25.98;15.38;;;5.20;99.90;;;;;;5046558;28;20083;-63
2022/03/01 07:44:29;;;;;;;22.27;13.48;;;5.20;99.90;;;;;;5047394;28;20037;-63
2022/03/01 07:46:55;;;;;;;23.17;14.20;;;5.30;99.90;;;;;;5048221;28;20068;-63
2022/03/01 07:49:21;;;;;;;25.10;15.23;;;5.30;99.90;;;;;;5046101;28;20045;-63
2022/03/01 07:51:46;;;;;;;19.75;14.73;;;5.40;99.90;;;;;;5048188;28;20396;-63
2022/03/01 07:54:12;;;;;;;21.23;14.38;;;5.30;99.90;;;;;;5048939;28;20089;-63
2022/03/01 07:56:39;;;;;;;17.73;12.88;;;5.40;99.90;;;;;;5045394;28;20072;-63
2022/03/01 07:59:06;;;;;;;21.75;13.63;;;5.40;99.90;;;;;;5047694;28;20061;-63
2022/03/01 08:01:31;;;;;;;22.05;14.30;;;5.40;99.90;;;;;;5048688;28;20512;-63
2022/03/01 08:03:57;;;;;;;22.75;14.40;;;5.40;99.90;;;;;;5049275;28;20068;-63
2022/03/01 08:06:22;;;;;;;22.65;13.75;;;5.40;99.90;;;;;;5046696;28;20041;-63
2022/03/01 08:08:48;;;;;;;19.42;13.90;;;5.40;99.90;;;;;;5048625;28;20542;-63
2022/03/01 08:11:13;;;;;;;19.30;13.50;;;5.40;99.90;;;;;;5047009;28;20515;-63
2022/03/01 08:13:39;;;;;;;20.95;13.88;;;5.40;99.90;;;;;;5047037;28;20440;-63
2022/03/01 08:16:05;;;;;;;24.40;15.43;;;5.50;99.90;;;;;;5048477;28;20676;-63
2022/03/01 08:18:31;;;;;;;26.00;15.52;;;5.50;99.90;;;;;;5046599;28;20049;-63
2022/03/01 08:20:58;;;;;;;27.88;15.52;;;5.50;99.90;;;;;;5047975;28;20060;-63
2022/03/01 08:23:24;;;;;;;27.35;15.32;;;5.50;99.90;;;;;;5046797;28;20344;-63
2022/03/01 08:25:50;;;;;;;23.60;15.25;;;5.50;99.90;;;;;;5047853;28;20053;-63
2022/03/01 08:28:16;;;;;;;23.92;15.07;;;5.60;99.90;;;;;;5046636;28;20051;-63
2022/03/01 08:30:41;;;;;;;23.30;14.75;;;5.60;99.90;;;;;;5048367;28;20037;-63
2022/03/01 08:33:07;;;;;;;18.40;13.20;;;5.70;99.90;;;;;;5044718;28;20140;-62
2022/03/01 08:35:34;;;;;;;32.47;16.42;;;5.70;99.90;;;;;;5041050;28;20055;-62
2022/03/01 08:38:02;;;;;;;22.38;15.00;;;5.70;99.90;;;;;;5043719;28;20098;-63
2022/03/01 08:40:30;;;;;;;21.08;14.15;;;5.70;99.90;;;;;;5048083;28;20477;-63
2022/03/01 08:42:55;;;;;;;22.63;15.75;;;5.70;99.90;;;;;;5044420;28;20049;-63
2022/03/01 08:45:21;;;;;;;22.25;14.15;;;5.70;99.90;;;;;;5047037;28;20198;-63
2022/03/01 08:47:47;;;;;;;19.38;14.45;;;5.70;99.90;;;;;;5044836;28;20041;-63
2022/03/01 08:50:12;;;;;;;24.98;17.02;;;5.70;99.90;;;;;;5049492;28;20041;-63
2022/03/01 08:52:39;;;;;;;30.33;14.88;;;5.60;99.90;;;;;;5051905;28;20045;-63
2022/03/01 08:55:06;;;;;;;21.13;15.02;;;5.70;99.90;;;;;;5048552;28;20052;-63
2022/03/01 08:57:32;;;;;;;22.02;13.93;;;5.70;99.90;;;;;;5036579;28;20045;-62
2022/03/01 08:59:58;;;;;;;22.38;15.65;;;5.80;99.90;;;;;;5045760;28;20057;-63
2022/03/01 09:02:23;;;;;;;17.90;13.77;;;5.80;99.90;;;;;;5049204;28;20048;-63
2022/03/01 09:04:49;;;;;;;20.98;14.70;;;5.80;99.90;;;;;;5052098;28;20037;-63
2022/03/01 09:07:14;;;;;;;22.52;15.65;;;5.90;99.90;;;;;;5050976;28;20052;-63
2022/03/01 09:09:40;;;;;;;23.08;14.30;;;5.90;99.90;;;;;;5050753;28;20079;-63
2022/03/01 09:12:06;;;;;;;22.63;14.65;;;5.90;99.90;;;;;;5051604;28;20071;-63
2022/03/01 09:14:31;;;;;;;20.27;14.35;;;5.90;99.90;;;;;;5050249;28;20045;-63
2022/03/01 09:16:57;;;;;;;23.10;15.40;;;6.00;99.90;;;;;;5050609;28;20641;-63
2022/03/01 09:19:22;;;;;;;21.80;15.20;;;6.00;99.90;;;;;;5050882;28;20492;-63
2022/03/01 09:21:48;;;;;;;23.00;14.05;;;6.00;99.90;;;;;;5049487;28;20041;-63
2022/03/01 09:24:14;;;;;;;23.05;15.60;;;6.00;99.90;;;;;;5049330;28;20688;-63
2022/03/01 09:26:39;;;;;;;28.05;15.70;;;6.00;99.90;;;;;;5051460;28;20045;-63
2022/03/01 09:29:05;;;;;;;23.45;13.82;;;6.10;99.90;;;;;;5050294;28;20033;-63
2022/03/01 09:31:31;;;;;;;21.00;15.20;;;6.10;99.90;;;;;;5050654;28;20157;-63
2022/03/01 09:33:57;;;;;;;25.55;15.38;;;6.10;99.90;;;;;;5050222;28;20426;-63
2022/03/01 09:36:23;;;;;;;23.35;15.80;;;6.20;99.90;;;;;;5050162;28;20123;-63
2022/03/01 09:38:48;;;;;;;21.50;14.68;;;6.20;99.90;;;;;;5050181;28;20059;-63
2022/03/01 09:41:14;;;;;;;21.80;15.27;;;6.30;99.90;;;;;;5049896;28;20071;-63
2022/03/01 09:43:41;;;;;;;22.23;14.18;;;6.30;99.90;;;;;;5050866;28;20128;-63
2022/03/01 09:46:09;;;;;;;18.60;13.90;;;6.30;99.90;;;;;;5050219;28;20041;-63
2022/03/01 09:48:38;;;;;;;30.90;15.23;;;6.30;99.90;;;;;;5050307;28;20041;-63
2022/03/01 09:51:06;;;;;;;22.13;14.23;;;6.20;99.90;;;;;;5049516;28;20056;-63
2022/03/01 09:53:33;;;;;;;22.17;14.45;;;6.30;99.90;;;;;;5050620;28;20041;-63
2022/03/01 09:56:04;;;;;;;20.70;15.15;;;6.30;99.90;;;;;;5050104;28;20051;-62
2022/03/01 09:58:29;;;;;;;22.23;16.17;;;6.30;99.90;;;;;;5049972;28;20127;-63
2022/03/01 10:00:55;;;;;;;24.13;16.90;;;6.20;99.90;;;;;;5051204;28;20148;-63
2022/03/01 10:03:21;;;;;;;22.05;16.13;;;6.20;99.90;;;;;;5048654;28;20052;-63
2022/03/01 10:05:47;;;;;;;32.40;17.95;;;6.30;99.90;;;;;;5050106;28;20049;-63
2022/03/01 10:08:14;;;;;;;27.35;16.77;;;6.30;99.90;;;;;;5047609;28;20052;-63
2022/03/01 10:10:43;;;;;;;26.13;16.33;;;6.30;99.90;;;;;;5043490;28;20040;-62
2022/03/01 10:13:11;;;;;;;22.25;15.57;;;6.30;99.90;;;;;;5041257;28;20029;-63
2022/03/01 10:15:37;;;;;;;24.08;15.57;;;6.30;99.90;;;;;;5046242;28;20089;-64
2022/03/01 10:18:12;;;;;;;25.25;17.52;;;6.30;99.90;;;;;;5044859;28;20076;-63
2022/03/01 10:20:39;;;;;;;25.98;17.35;;;6.30;99.90;;;;;;5047580;28;20845;-64
2022/03/01 10:23:05;;;;;;;26.10;17.35;;;6.20;99.90;;;;;;5049883;28;20041;-63
2022/03/01 10:25:30;;;;;;;30.00;17.27;;;6.20;99.90;;;;;;5049136;28;20041;-63
2022/03/01 10:27:56;;;;;;;30.08;17.05;;;6.20;99.90;;;;;;5049488;28;20456;-63
2022/03/01 10:30:25;;;;;;;21.02;16.00;;;6.20;99.90;;;;;;5046012;28;20041;-62
2022/03/01 10:33:01;;;;;;;22.75;17.20;;;6.30;99.90;;;;;;5042388;28;20052;-63
2022/03/01 10:35:27;;;;;;;25.30;18.73;;;6.20;99.90;;;;;;5044348;28;20045;-63
2022/03/01 10:37:52;;;;;;;27.05;16.58;;;6.20;99.90;;;;;;5050340;28;20098;-63
2022/03/01 10:40:23;;;;;;;25.55;16.92;;;6.20;99.90;;;;;;5048631;28;20045;-63
2022/03/01 10:43:18;;;;;;;25.42;17.50;;;6.20;99.90;;;;;;5051733;28;20059;-63
2022/03/01 10:45:46;;;;;;;21.58;16.23;;;6.20;99.90;;;;;;5021480;28;20092;-63
2022/03/01 10:48:29;;;;;;;23.77;18.10;;;6.20;99.90;;;;;;5044302;28;20951;-63
2022/03/01 10:51:03;;;;;;;23.98;16.75;;;6.20;99.90;;;;;;5042123;28;20610;-63
2022/03/01 10:53:35;;;;;;;23.40;16.48;;;6.20;99.90;;;;;;5040711;28;20045;-62
2022/03/01 10:56:03;;;;;;;25.85;17.38;;;6.20;99.90;;;;;;5037515;28;20046;-62
2022/03/01 10:58:29;;;;;;;25.88;17.85;;;6.10;99.90;;;;;;5037706;28;20041;-63
2022/03/01 11:00:55;;;;;;;29.50;18.45;;;6.10;99.90;;;;;;5041789;28;20050;-62
2022/03/01 11:03:20;;;;;;;27.27;17.80;;;6.10;99.90;;;;;;5039759;28;20863;-62
2022/03/01 11:05:47;;;;;;;27.02;18.67;;;6.20;99.90;;;;;;5044487;28;20045;-62
2022/03/01 11:08:13;;;;;;;30.63;19.15;;;6.10;99.90;;;;;;5046440;28;20408;-62
2022/03/01 11:10:40;;;;;;;28.23;20.38;;;6.10;99.90;;;;;;5036554;28;20086;-63
2022/03/01 11:13:06;;;;;;;29.85;20.17;;;6.20;99.90;;;;;;5038703;28;20037;-63
2022/03/01 11:15:47;;;;;;;35.42;21.85;;;6.10;99.90;;;;;;5043659;28;20389;-62
2022/03/01 11:18:38;;;;;;;29.92;20.63;;;6.20;99.90;;;;;;5037394;28;20045;-63
2022/03/01 11:21:05;;;;;;;27.95;18.92;;;6.20;99.90;;;;;;5045705;28;20400;-63
2022/03/01 11:23:31;;;;;;;27.02;19.02;;;6.20;99.90;;;;;;5040503;28;20553;-63
2022/03/01 11:26:14;;;;;;;32.97;20.58;;;6.20;99.90;;;;;;5045317;28;20555;-63
2022/03/01 11:28:50;;;;;;;29.40;19.58;;;6.30;99.90;;;;;;5041749;28;20443;-64
2022/03/01 11:31:30;;;;;;;29.85;20.42;;;6.30;99.90;;;;;;5045800;28;20488;-64
2022/03/01 11:34:16;;;;;;;29.38;20.90;;;6.30;99.90;;;;;;5048659;28;20045;-64
2022/03/01 11:36:57;;;;;;;28.73;21.33;;;6.30;99.90;;;;;;5062811;28;20045;-63
2022/03/01 11:39:31;;;;;;;33.08;23.05;;;6.40;99.90;;;;;;5047541;28;20041;-64
2022/03/01 11:42:16;;;;;;;37.33;20.48;;;6.40;99.90;;;;;;5048738;28;20644;-64
2022/03/01 11:44:47;;;;;;;30.65;20.27;;;6.40;99.90;;;;;;5042005;28;20052;-64
2022/03/01 11:47:27;;;;;;;31.67;21.27;;;6.40;99.90;;;;;;5047330;28;20059;-63
2022/03/01 11:49:53;;;;;;;31.83;19.63;;;6.50;99.90;;;;;;5047162;28;20488;-63
2022/03/01 11:52:22;;;;;;;31.02;20.27;;;6.60;99.90;;;;;;5047726;28;20123;-63
2022/03/01 11:54:49;;;;;;;29.90;18.98;;;6.60;99.90;;;;;;5048078;28;20076;-64
2022/03/01 11:57:15;;;;;;;35.90;21.98;;;6.60;99.90;;;;;;5046117;28;20033;-63
2022/03/01 11:59:43;;;;;;;32.15;21.13;;;6.60;99.90;;;;;;5047425;28;20404;-64
2022/03/01 12:02:10;;;;;;;29.80;19.15;;;6.70;99.90;;;;;;5046949;28;20128;-64
2022/03/01 12:04:45;;;;;;;35.65;20.10;;;6.70;99.90;;;;;;5046982;28;20052;-64
2022/03/01 12:07:10;;;;;;;30.98;20.45;;;6.70;99.90;;;;;;5047110;28;20045;-64
2022/03/01 12:09:39;;;;;;;28.55;20.58;;;6.60;99.90;;;;;;5047883;28;20047;-64
2022/03/01 12:12:07;;;;;;;30.17;20.08;;;6.70;99.90;;;;;;5046655;28;20498;-64
2022/03/01 12:14:34;;;;;;;24.88;18.15;;;6.70;99.90;;;;;;5046611;28;20576;-64
2022/03/01 12:17:04;;;;;;;28.83;20.40;;;6.80;99.90;;;;;;5047070;28;20051;-64
2022/03/01 12:19:32;;;;;;;28.77;21.08;;;6.90;99.90;;;;;;5045853;28;20055;-64
2022/03/01 12:21:59;;;;;;;26.52;19.08;;;6.90;99.90;;;;;;5048125;28;20053;-64
2022/03/01 12:24:30;;;;;;;27.70;20.05;;;7.00;99.90;;;;;;5047938;28;20037;-64
2022/03/01 12:26:58;;;;;;;31.92;19.70;;;7.00;99.90;;;;;;5046554;28;20512;-64
2022/03/01 12:29:30;;;;;;;25.10;18.25;;;7.10;99.90;;;;;;5047135;28;20563;-64
2022/03/01 12:32:01;;;;;;;28.70;20.05;;;7.20;99.90;;;;;;5047892;28;20344;-64
2022/03/01 12:34:31;;;;;;;29.10;20.33;;;7.30;99.90;;;;;;5046791;28;20489;-64
2022/03/01 12:37:03;;;;;;;26.08;19.55;;;7.30;99.90;;;;;;5047112;28;20576;-64